Gordon V.sr. — WDB8505 — position and weather

sailwx.info

Track history (hours):
 
Tides and Currents Weather Stations Pressure Air Temp Water Temp Dewpoint Dewpoint Depression Visibility Wind Speed Wind Dir Waves Ship Positions

Gordon V.sr.

Owner: B&G TOWING L.L.C., Lafitte, LA. More information available from US FCC via Universal Licensing System and Coast Guard Vessel Documentation Center.

Last reported at 2015-May-05 11:29 UTC. Time now 2015-May-05 12:16 UTC.
Position N 29°57' W 090°01'.

MMSI: 365910942.

Date/timePositionNaut miles runAvg speedWind from/ knotsBaromVisibWave heightAir tempDewpointWater temp
2015-May-05 11:29N 29°57' W 090°01'0 0.0
2015-May-05 10:32N 29°57' W 090°01'1 1.1
2015-May-05 09:19N 29°56' W 089°59'0 0.7
2015-May-05 08:33N 29°56' W 089°60'1 0.6
2015-May-05 07:33N 29°56' W 089°59'1 0.5
2015-May-05 06:21N 29°57' W 089°60'0 0.0
2015-May-05 05:34N 29°57' W 089°60'0 0.4
2015-May-05 04:34N 29°56' W 089°60'0 0.3
2015-May-05 03:27N 29°56' W 089°59'0 0.0
2015-May-05 02:31N 29°56' W 089°59'0 0.0
2015-May-05 01:32N 29°56' W 089°59'0 0.0
2015-May-05 00:32N 29°56' W 089°59'1 1.4
2015-May-04 23:33N 29°57' W 090°01'1 1.3
2015-May-04 22:30N 29°56' W 089°59'1 1.4
2015-May-04 21:33N 29°57' W 090°01'1 0.6
2015-May-04 20:27N 29°57' W 089°60'1 0.6
2015-May-04 19:20N 29°56' W 089°59'1 0.7
2015-May-04 18:21N 29°57' W 089°60'1 0.8
2015-May-04 17:25N 29°57' W 090°01'0 0.0
2015-May-04 11:11N 29°57' W 090°01'0 0.0
2015-May-04 10:33N 29°57' W 090°01'1 1.3
2015-May-04 09:33N 29°56' W 089°59'0 0.0
2015-May-04 08:33N 29°56' W 089°59'0 0.0
2015-May-04 07:33N 29°56' W 089°59'0 0.4
2015-May-04 06:33N 29°56' W 089°60'1 0.5
2015-May-04 05:31N 29°56' W 089°59'1 0.7
2015-May-04 04:33N 29°57' W 090°00'1 0.6
2015-May-04 03:33N 29°56' W 089°59'1 0.9
2015-May-04 02:33N 29°56' W 090°00'1 0.6
2015-May-04 01:26N 29°56' W 089°60'0 0.4
2015-May-04 00:30N 29°56' W 089°60'0 0.1
2015-May-03 23:29N 29°56' W 089°60'1 0.5
2015-May-03 22:26N 29°56' W 089°59'1 0.1
2015-May-03 11:06N 29°57' W 090°01'0 0.0
2015-May-03 10:29N 29°57' W 090°01'1 1.1
2015-May-03 09:14N 29°56' W 089°59'1 1.4
2015-May-03 08:30N 29°56' W 090°00'1 0.8
2015-May-03 07:20N 29°56' W 089°59'2 1.9
2015-May-03 06:32N 29°57' W 090°01'1 0.5
2015-May-03 05:30N 29°56' W 090°01'0 0.0
2015-May-03 04:28N 29°56' W 090°01'0 0.0
2015-May-03 03:32N 29°56' W 090°01'0 0.0
2015-May-03 02:14N 29°56' W 090°01'1 0.7
2015-May-03 01:30N 29°57' W 090°01'1 1.0
2015-May-03 00:29N 29°57' W 089°60'1 0.8
2015-May-02 23:33N 29°57' W 090°01'1 1.1
2015-May-02 22:31N 29°56' W 089°60'0 0.5
2015-May-02 21:31N 29°57' W 089°60'0 0.1
2015-May-02 20:33N 29°57' W 089°60'0 0.1
2015-May-02 19:32N 29°56' W 089°60'1 0.9
2015-May-02 18:33N 29°57' W 090°01'0 0.0
2015-May-02 17:25N 29°57' W 090°01'1 1.4
2015-May-02 16:26N 29°56' W 089°59'1 0.1
2015-May-02 04:32N 29°57' W 089°60'1 0.7
2015-May-02 03:29N 29°57' W 090°01'0 0.0
2015-May-02 02:31N 29°57' W 090°01'1 1.1
2015-May-02 01:24N 29°56' W 089°59'0 0.4
2015-May-02 00:33N 29°56' W 089°59'2 1.6
2015-May-01 23:30N 29°57' W 090°01'1 0.9
2015-May-01 22:30N 29°57' W 090°02'6 5.8
2015-May-01 21:32N 29°55' W 090°07'1 1.2
2015-May-01 20:27N 29°55' W 090°06'3 3.6
2015-May-01 19:33N 29°57' W 090°03'2 2.2
2015-May-01 18:33N 29°57' W 090°01'1 1.2
2015-May-01 17:32N 29°58' W 090°02'1 1.4
2015-May-01 16:32N 29°57' W 090°01'0 0.3
2015-May-01 15:32N 29°57' W 090°01'1 1.4
2015-May-01 14:33N 29°56' W 089°59'1 1.2
2015-May-01 13:27N 29°56' W 090°01'0 0.3
2015-May-01 12:31N 29°57' W 090°01'1 0.4
2015-May-01 09:14N 29°56' W 089°59'1 1.7
2015-May-01 08:29N 29°57' W 090°01'0 0.1
2015-May-01 07:25N 29°57' W 090°01'0 0.1
2015-May-01 06:21N 29°57' W 090°01'1 0.5
2015-May-01 04:33N 29°57' W 090°01'0 0.3
2015-May-01 03:05N 29°57' W 090°01'1 2.1
2015-May-01 02:33N 29°58' W 090°02'1 1.4
2015-May-01 01:31N 29°57' W 090°01'2 2.2
2015-May-01 00:30N 29°56' W 090°03'3 2.9
2015-Apr-30 23:32N 29°55' W 090°06'1 0.7
2015-Apr-30 22:22N 29°55' W 090°05'0 0.1
2015-Apr-30 21:33N 29°55' W 090°05'1 0.5
2015-Apr-30 20:33N 29°55' W 090°06'3 2.9
2015-Apr-30 19:33N 29°57' W 090°04'2 2.4
2015-Apr-30 18:31N 29°57' W 090°01'1 1.5
2015-Apr-30 17:32N 29°56' W 089°59'0 0.0
2015-Apr-30 16:32N 29°56' W 089°59'0 0.1
2015-Apr-30 15:30N 29°56' W 089°59'1 1.5
2015-Apr-30 14:33N 29°57' W 090°01'0 0.0
2015-Apr-30 13:30N 29°57' W 090°01'0 0.0
2015-Apr-30 12:27N 29°57' W 090°01'0 0.0
2015-Apr-29 20:21N 29°57' W 090°01'0 0.1
2015-Apr-29 19:13N 29°57' W 090°01'2 1.7
2015-Apr-29 18:15N 29°56' W 089°59'0 0.2
2015-Apr-29 17:07N 29°56' W 089°59'0 0.1
2015-Apr-29 15:19N 29°56' W 089°59'0 0.0
2015-Apr-29 13:28N 29°56' W 089°59'0 0.0
2015-Apr-29 12:32N 29°56' W 089°59'2 0.1
2015-Apr-28 15:24N 29°57' W 090°01'0 0.4
2015-Apr-28 14:24N 29°57' W 090°01'0 0.1
2015-Apr-28 11:33N 29°57' W 090°01'1 1.2
2015-Apr-28 10:27N 29°56' W 089°59'0 0.0
2015-Apr-28 09:33N 29°56' W 089°59'0 0.0
2015-Apr-28 08:30N 29°56' W 089°59'0 0.1
2015-Apr-28 07:33N 29°56' W 089°59'0 0.1
2015-Apr-28 06:31N 29°56' W 089°59'1 0.0
2015-Apr-27 10:29N 29°56' W 089°60'1 0.7
2015-Apr-27 09:32N 29°56' W 089°59'0 0.1
2015-Apr-27 08:33N 29°56' W 089°59'0 0.0
2015-Apr-27 07:33N 29°56' W 089°59'0 0.1
2015-Apr-27 06:10N 29°56' W 089°59'0 0.0
2015-Apr-27 05:17N 29°56' W 089°59'1 0.1
2015-Apr-26 11:32N 29°57' W 090°01'1 1.1
2015-Apr-26 10:23N 29°56' W 089°59'0 0.2
2015-Apr-26 09:28N 29°56' W 089°59'0 0.0
2015-Apr-26 08:30N 29°56' W 089°59'0 0.2
2015-Apr-26 07:33N 29°56' W 089°59'0 0.2
2015-Apr-26 06:33N 29°56' W 089°59'0 0.0
2015-Apr-26 05:28N 29°56' W 089°59'0 0.0
2015-Apr-26 04:28N 29°56' W 089°59'  
Track history (hours):
 
Tides and Currents Weather Stations Pressure Air Temp Water Temp Dewpoint Dewpoint Depression Visibility Wind Speed Wind Dir Waves Ship Positions

Gordon V.sr.

Owner: B&G TOWING L.L.C., Lafitte, LA. More information available from US FCC via Universal Licensing System and Coast Guard Vessel Documentation Center.

Last reported at 2015-May-05 11:29 UTC. Time now 2015-May-05 12:16 UTC.
Position N 29°57' W 090°01'.

MMSI: 365910942.

Date/timePositionNaut miles runAvg speedWind from/ knotsBaromVisibWave heightAir tempDewpointWater temp
2015-May-05 11:29N 29°57' W 090°01'0 0.0
2015-May-05 10:32N 29°57' W 090°01'1 1.1
2015-May-05 09:19N 29°56' W 089°59'0 0.7
2015-May-05 08:33N 29°56' W 089°60'1 0.6
2015-May-05 07:33N 29°56' W 089°59'1 0.5
2015-May-05 06:21N 29°57' W 089°60'0 0.0
2015-May-05 05:34N 29°57' W 089°60'0 0.4
2015-May-05 04:34N 29°56' W 089°60'0 0.3
2015-May-05 03:27N 29°56' W 089°59'0 0.0
2015-May-05 02:31N 29°56' W 089°59'0 0.0
2015-May-05 01:32N 29°56' W 089°59'0 0.0
2015-May-05 00:32N 29°56' W 089°59'1 1.4
2015-May-04 23:33N 29°57' W 090°01'1 1.3
2015-May-04 22:30N 29°56' W 089°59'1 1.4
2015-May-04 21:33N 29°57' W 090°01'1 0.6
2015-May-04 20:27N 29°57' W 089°60'1 0.6
2015-May-04 19:20N 29°56' W 089°59'1 0.7
2015-May-04 18:21N 29°57' W 089°60'1 0.8
2015-May-04 17:25N 29°57' W 090°01'0 0.0
2015-May-04 11:11N 29°57' W 090°01'0 0.0
2015-May-04 10:33N 29°57' W 090°01'1 1.3
2015-May-04 09:33N 29°56' W 089°59'0 0.0
2015-May-04 08:33N 29°56' W 089°59'0 0.0
2015-May-04 07:33N 29°56' W 089°59'0 0.4
2015-May-04 06:33N 29°56' W 089°60'1 0.5
2015-May-04 05:31N 29°56' W 089°59'1 0.7
2015-May-04 04:33N 29°57' W 090°00'1 0.6
2015-May-04 03:33N 29°56' W 089°59'1 0.9
2015-May-04 02:33N 29°56' W 090°00'1 0.6
2015-May-04 01:26N 29°56' W 089°60'0 0.4
2015-May-04 00:30N 29°56' W 089°60'0 0.1
2015-May-03 23:29N 29°56' W 089°60'1 0.5
2015-May-03 22:26N 29°56' W 089°59'1 0.1
2015-May-03 11:06N 29°57' W 090°01'0 0.0
2015-May-03 10:29N 29°57' W 090°01'1 1.1
2015-May-03 09:14N 29°56' W 089°59'1 1.4
2015-May-03 08:30N 29°56' W 090°00'1 0.8
2015-May-03 07:20N 29°56' W 089°59'2 1.9
2015-May-03 06:32N 29°57' W 090°01'1 0.5
2015-May-03 05:30N 29°56' W 090°01'0 0.0
2015-May-03 04:28N 29°56' W 090°01'0 0.0
2015-May-03 03:32N 29°56' W 090°01'0 0.0
2015-May-03 02:14N 29°56' W 090°01'1 0.7
2015-May-03 01:30N 29°57' W 090°01'1 1.0
2015-May-03 00:29N 29°57' W 089°60'1 0.8
2015-May-02 23:33N 29°57' W 090°01'1 1.1
2015-May-02 22:31N 29°56' W 089°60'0 0.5
2015-May-02 21:31N 29°57' W 089°60'0 0.1
2015-May-02 20:33N 29°57' W 089°60'0 0.1
2015-May-02 19:32N 29°56' W 089°60'1 0.9
2015-May-02 18:33N 29°57' W 090°01'0 0.0
2015-May-02 17:25N 29°57' W 090°01'1 1.4
2015-May-02 16:26N 29°56' W 089°59'1 0.1
2015-May-02 04:32N 29°57' W 089°60'1 0.7
2015-May-02 03:29N 29°57' W 090°01'0 0.0
2015-May-02 02:31N 29°57' W 090°01'1 1.1
2015-May-02 01:24N 29°56' W 089°59'0 0.4
2015-May-02 00:33N 29°56' W 089°59'2 1.6
2015-May-01 23:30N 29°57' W 090°01'1 0.9
2015-May-01 22:30N 29°57' W 090°02'6 5.8
2015-May-01 21:32N 29°55' W 090°07'1 1.2
2015-May-01 20:27N 29°55' W 090°06'3 3.6
2015-May-01 19:33N 29°57' W 090°03'2 2.2
2015-May-01 18:33N 29°57' W 090°01'1 1.2
2015-May-01 17:32N 29°58' W 090°02'1 1.4
2015-May-01 16:32N 29°57' W 090°01'0 0.3
2015-May-01 15:32N 29°57' W 090°01'1 1.4
2015-May-01 14:33N 29°56' W 089°59'1 1.2
2015-May-01 13:27N 29°56' W 090°01'0 0.3
2015-May-01 12:31N 29°57' W 090°01'1 0.4
2015-May-01 09:14N 29°56' W 089°59'1 1.7
2015-May-01 08:29N 29°57' W 090°01'0 0.1
2015-May-01 07:25N 29°57' W 090°01'0 0.1
2015-May-01 06:21N 29°57' W 090°01'1 0.5
2015-May-01 04:33N 29°57' W 090°01'0 0.3
2015-May-01 03:05N 29°57' W 090°01'1 2.1
2015-May-01 02:33N 29°58' W 090°02'1 1.4
2015-May-01 01:31N 29°57' W 090°01'2 2.2
2015-May-01 00:30N 29°56' W 090°03'3 2.9
2015-Apr-30 23:32N 29°55' W 090°06'1 0.7
2015-Apr-30 22:22N 29°55' W 090°05'0 0.1
2015-Apr-30 21:33N 29°55' W 090°05'1 0.5
2015-Apr-30 20:33N 29°55' W 090°06'3 2.9
2015-Apr-30 19:33N 29°57' W 090°04'2 2.4
2015-Apr-30 18:31N 29°57' W 090°01'1 1.5
2015-Apr-30 17:32N 29°56' W 089°59'0 0.0
2015-Apr-30 16:32N 29°56' W 089°59'0 0.1
2015-Apr-30 15:30N 29°56' W 089°59'1 1.5
2015-Apr-30 14:33N 29°57' W 090°01'0 0.0
2015-Apr-30 13:30N 29°57' W 090°01'0 0.0
2015-Apr-30 12:27N 29°57' W 090°01'0 0.0
2015-Apr-29 20:21N 29°57' W 090°01'0 0.1
2015-Apr-29 19:13N 29°57' W 090°01'2 1.7
2015-Apr-29 18:15N 29°56' W 089°59'0 0.2
2015-Apr-29 17:07N 29°56' W 089°59'0 0.1
2015-Apr-29 15:19N 29°56' W 089°59'0 0.0
2015-Apr-29 13:28N 29°56' W 089°59'0 0.0
2015-Apr-29 12:32N 29°56' W 089°59'2 0.1
2015-Apr-28 15:24N 29°57' W 090°01'0 0.4
2015-Apr-28 14:24N 29°57' W 090°01'0 0.1
2015-Apr-28 11:33N 29°57' W 090°01'1 1.2
2015-Apr-28 10:27N 29°56' W 089°59'0 0.0
2015-Apr-28 09:33N 29°56' W 089°59'0 0.0
2015-Apr-28 08:30N 29°56' W 089°59'0 0.1
2015-Apr-28 07:33N 29°56' W 089°59'0 0.1
2015-Apr-28 06:31N 29°56' W 089°59'1 0.0
2015-Apr-27 10:29N 29°56' W 089°60'1 0.7
2015-Apr-27 09:32N 29°56' W 089°59'0 0.1
2015-Apr-27 08:33N 29°56' W 089°59'0 0.0
2015-Apr-27 07:33N 29°56' W 089°59'0 0.1
2015-Apr-27 06:10N 29°56' W 089°59'0 0.0
2015-Apr-27 05:17N 29°56' W 089°59'1 0.1
2015-Apr-26 11:32N 29°57' W 090°01'1 1.1
2015-Apr-26 10:23N 29°56' W 089°59'0 0.2
2015-Apr-26 09:28N 29°56' W 089°59'0 0.0
2015-Apr-26 08:30N 29°56' W 089°59'0 0.2
2015-Apr-26 07:33N 29°56' W 089°59'0 0.2
2015-Apr-26 06:33N 29°56' W 089°59'0 0.0
2015-Apr-26 05:28N 29°56' W 089°59'0 0.0
2015-Apr-26 04:28N 29°56' W 089°59'  

Dump ship's entire track history